sensor_id;sensor_type;location;lat;lon;timestamp;pressure;altitude;pressure_sealevel;temperature;humidity
6090;BME280;3073;42.660;23.316;2023-11-21T00:01:33;94321.56;;;18.62;41.75
6090;BME280;3073;42.660;23.316;2023-11-21T00:03:59;94322.91;;;18.73;41.16
6090;BME280;3073;42.660;23.316;2023-11-21T00:06:27;94322.06;;;18.23;42.20
6090;BME280;3073;42.660;23.316;2023-11-21T00:08:55;94323.22;;;18.30;42.42
6090;BME280;3073;42.660;23.316;2023-11-21T00:11:22;94323.78;;;18.27;42.43
6090;BME280;3073;42.660;23.316;2023-11-21T00:13:50;94323.09;;;18.49;42.26
6090;BME280;3073;42.660;23.316;2023-11-21T00:16:17;94322.91;;;17.91;42.53
6090;BME280;3073;42.660;23.316;2023-11-21T00:18:46;94327.06;;;17.60;43.68
6090;BME280;3073;42.660;23.316;2023-11-21T00:21:13;94333.88;;;15.91;46.50
6090;BME280;3073;42.660;23.316;2023-11-21T00:23:40;94324.88;;;16.36;45.93
6090;BME280;3073;42.660;23.316;2023-11-21T00:26:07;94322.25;;;17.53;43.92
6090;BME280;3073;42.660;23.316;2023-11-21T00:28:34;94317.91;;;16.79;45.04
6090;BME280;3073;42.660;23.316;2023-11-21T00:31:01;94319.31;;;16.71;45.34
6090;BME280;3073;42.660;23.316;2023-11-21T00:33:27;94311.59;;;16.90;45.00
6090;BME280;3073;42.660;23.316;2023-11-21T00:35:56;94307.47;;;15.80;46.88
6090;BME280;3073;42.660;23.316;2023-11-21T00:38:22;94314.38;;;16.93;45.05
6090;BME280;3073;42.660;23.316;2023-11-21T00:40:49;94312.28;;;17.46;44.44
6090;BME280;3073;42.660;23.316;2023-11-21T00:43:16;94311.56;;;17.09;45.18
6090;BME280;3073;42.660;23.316;2023-11-21T00:45:43;94313.69;;;17.39;44.37
6090;BME280;3073;42.660;23.316;2023-11-21T00:48:10;94317.50;;;17.60;44.48
6090;BME280;3073;42.660;23.316;2023-11-21T00:50:39;94325.81;;;16.87;45.72
6090;BME280;3073;42.660;23.316;2023-11-21T00:53:07;94321.38;;;17.25;44.00
6090;BME280;3073;42.660;23.316;2023-11-21T00:55:34;94324.38;;;17.32;44.72
6090;BME280;3073;42.660;23.316;2023-11-21T00:58:01;94304.75;;;18.10;43.17
6090;BME280;3073;42.660;23.316;2023-11-21T01:00:29;94307.72;;;18.44;42.53
6090;BME280;3073;42.660;23.316;2023-11-21T01:02:56;94306.28;;;18.51;42.44
6090;BME280;3073;42.660;23.316;2023-11-21T01:05:23;94298.31;;;18.48;42.26
6090;BME280;3073;42.660;23.316;2023-11-21T01:07:50;94301.00;;;17.88;43.00
6090;BME280;3073;42.660;23.316;2023-11-21T01:10:19;94307.53;;;17.54;43.61
6090;BME280;3073;42.660;23.316;2023-11-21T01:12:47;94299.97;;;18.30;42.41
6090;BME280;3073;42.660;23.316;2023-11-21T01:15:14;94291.00;;;18.00;42.90
6090;BME280;3073;42.660;23.316;2023-11-21T01:17:41;94296.16;;;18.00;43.13
6090;BME280;3073;42.660;23.316;2023-11-21T01:20:09;94292.63;;;18.10;42.82
6090;BME280;3073;42.660;23.316;2023-11-21T01:22:38;94297.38;;;18.30;42.61
6090;BME280;3073;42.660;23.316;2023-11-21T01:25:06;94302.38;;;17.99;42.98
6090;BME280;3073;42.660;23.316;2023-11-21T01:27:34;94298.34;;;18.07;42.91
6090;BME280;3073;42.660;23.316;2023-11-21T01:30:03;94306.09;;;18.21;42.62
6090;BME280;3073;42.660;23.316;2023-11-21T01:32:30;94305.09;;;17.76;42.54
6090;BME280;3073;42.660;23.316;2023-11-21T01:34:57;94293.66;;;18.23;42.39
6090;BME280;3073;42.660;23.316;2023-11-21T01:37:24;94294.44;;;18.10;42.22
6090;BME280;3073;42.660;23.316;2023-11-21T01:39:53;94303.72;;;18.38;41.93
6090;BME280;3073;42.660;23.316;2023-11-21T01:42:20;94301.28;;;18.41;41.99
6090;BME280;3073;42.660;23.316;2023-11-21T01:44:49;94307.72;;;18.30;41.85
6090;BME280;3073;42.660;23.316;2023-11-21T01:47:16;94306.28;;;18.11;42.11
6090;BME280;3073;42.660;23.316;2023-11-21T01:49:45;94294.50;;;18.18;42.11
6090;BME280;3073;42.660;23.316;2023-11-21T01:52:13;94290.59;;;17.93;42.50
6090;BME280;3073;42.660;23.316;2023-11-21T01:54:40;94289.16;;;17.74;42.76
6090;BME280;3073;42.660;23.316;2023-11-21T01:57:07;94288.88;;;17.89;42.76
6090;BME280;3073;42.660;23.316;2023-11-21T01:59:36;94299.38;;;17.92;42.88
6090;BME280;3073;42.660;23.316;2023-11-21T02:02:05;94303.94;;;17.04;44.34
6090;BME280;3073;42.660;23.316;2023-11-21T02:04:33;94295.75;;;17.93;42.50
6090;BME280;3073;42.660;23.316;2023-11-21T02:07:00;94293.56;;;18.00;42.12
6090;BME280;3073;42.660;23.316;2023-11-21T02:09:27;94304.13;;;17.72;42.28
6090;BME280;3073;42.660;23.316;2023-11-21T02:11:55;94304.69;;;16.67;44.56
6090;BME280;3073;42.660;23.316;2023-11-21T02:14:21;94296.44;;;17.53;43.16
6090;BME280;3073;42.660;23.316;2023-11-21T02:16:50;94298.91;;;17.44;43.05
6090;BME280;3073;42.660;23.316;2023-11-21T02:19:19;94290.59;;;17.93;42.22
6090;BME280;3073;42.660;23.316;2023-11-21T02:21:49;94291.97;;;17.59;43.14
6090;BME280;3073;42.660;23.316;2023-11-21T02:24:19;94299.50;;;17.55;43.34
6090;BME280;3073;42.660;23.316;2023-11-21T02:26:46;94290.66;;;17.75;43.10
6090;BME280;3073;42.660;23.316;2023-11-21T02:29:13;94287.06;;;17.89;42.54
6090;BME280;3073;42.660;23.316;2023-11-21T02:31:43;94288.09;;;17.88;42.43
6090;BME280;3073;42.660;23.316;2023-11-21T02:34:14;94285.97;;;17.63;42.67
6090;BME280;3073;42.660;23.316;2023-11-21T02:36:41;94284.63;;;17.66;42.75
6090;BME280;3073;42.660;23.316;2023-11-21T02:39:09;94284.94;;;17.91;42.24
6090;BME280;3073;42.660;23.316;2023-11-21T02:41:37;94289.16;;;17.55;42.76
6090;BME280;3073;42.660;23.316;2023-11-21T02:44:05;94285.97;;;16.61;44.28
6090;BME280;3073;42.660;23.316;2023-11-21T02:46:33;94286.72;;;16.38;44.96
6090;BME280;3073;42.660;23.316;2023-11-21T02:49:00;94286.78;;;15.90;46.37
6090;BME280;3073;42.660;23.316;2023-11-21T02:51:27;94285.34;;;16.45;44.86
6090;BME280;3073;42.660;23.316;2023-11-21T02:53:54;94286.59;;;16.90;44.07
6090;BME280;3073;42.660;23.316;2023-11-21T02:56:24;94285.94;;;16.98;43.79
6090;BME280;3073;42.660;23.316;2023-11-21T02:58:52;94293.81;;;16.88;43.59
6090;BME280;3073;42.660;23.316;2023-11-21T03:01:19;94290.22;;;16.89;44.37
6090;BME280;3073;42.660;23.316;2023-11-21T03:03:46;94278.47;;;17.16;43.94
6090;BME280;3073;42.660;23.316;2023-11-21T03:06:13;94271.22;;;17.18;43.64
6090;BME280;3073;42.660;23.316;2023-11-21T03:08:40;94278.19;;;17.17;43.60
6090;BME280;3073;42.660;23.316;2023-11-21T03:11:07;94273.50;;;16.26;44.64
6090;BME280;3073;42.660;23.316;2023-11-21T03:13:34;94282.06;;;16.64;44.54
6090;BME280;3073;42.660;23.316;2023-11-21T03:16:03;94283.59;;;16.83;44.22
6090;BME280;3073;42.660;23.316;2023-11-21T03:18:30;94272.19;;;16.05;45.62
6090;BME280;3073;42.660;23.316;2023-11-21T03:20:57;94286.44;;;16.63;44.53
6090;BME280;3073;42.660;23.316;2023-11-21T03:23:24;94287.44;;;16.67;44.38
6090;BME280;3073;42.660;23.316;2023-11-21T03:25:50;94300.41;;;16.15;45.17
6090;BME280;3073;42.660;23.316;2023-11-21T03:28:17;94301.00;;;15.83;46.20
6090;BME280;3073;42.660;23.316;2023-11-21T03:30:44;94299.91;;;15.89;45.75
6090;BME280;3073;42.660;23.316;2023-11-21T03:33:12;94303.59;;;15.54;46.70
6090;BME280;3073;42.660;23.316;2023-11-21T03:35:39;94297.34;;;16.13;46.15
6090;BME280;3073;42.660;23.316;2023-11-21T03:38:07;94294.59;;;15.52;46.60
6090;BME280;3073;42.660;23.316;2023-11-21T03:40:34;94293.06;;;16.03;45.98
6090;BME280;3073;42.660;23.316;2023-11-21T03:43:01;94293.44;;;15.91;46.43
6090;BME280;3073;42.660;23.316;2023-11-21T03:45:28;94290.81;;;16.44;45.65
6090;BME280;3073;42.660;23.316;2023-11-21T03:47:55;94284.47;;;16.55;45.12
6090;BME280;3073;42.660;23.316;2023-11-21T03:50:23;94272.50;;;17.02;44.41
6090;BME280;3073;42.660;23.316;2023-11-21T03:52:50;94271.34;;;16.33;45.44
6090;BME280;3073;42.660;23.316;2023-11-21T03:55:17;94272.75;;;16.68;45.20
6090;BME280;3073;42.660;23.316;2023-11-21T03:57:44;94269.91;;;16.45;45.30
6090;BME280;3073;42.660;23.316;2023-11-21T04:00:11;94276.72;;;16.60;45.10
6090;BME280;3073;42.660;23.316;2023-11-21T04:02:38;94267.44;;;16.59;44.94
6090;BME280;3073;42.660;23.316;2023-11-21T04:05:06;94267.56;;;16.86;44.65
6090;BME280;3073;42.660;23.316;2023-11-21T04:07:35;94267.28;;;16.69;44.53
6090;BME280;3073;42.660;23.316;2023-11-21T04:10:04;94259.09;;;16.25;45.27
6090;BME280;3073;42.660;23.316;2023-11-21T04:12:33;94266.09;;;16.62;45.11
6090;BME280;3073;42.660;23.316;2023-11-21T04:14:59;94257.41;;;16.76;44.63
6090;BME280;3073;42.660;23.316;2023-11-21T04:17:26;94258.44;;;16.75;44.94
6090;BME280;3073;42.660;23.316;2023-11-21T04:19:53;94260.09;;;16.85;44.45
6090;BME280;3073;42.660;23.316;2023-11-21T04:22:20;94258.03;;;16.87;44.41
6090;BME280;3073;42.660;23.316;2023-11-21T04:24:48;94257.06;;;17.47;43.57
6090;BME280;3073;42.660;23.316;2023-11-21T04:27:15;94256.69;;;16.52;44.68
6090;BME280;3073;42.660;23.316;2023-11-21T04:29:43;94258.66;;;17.30;43.45
6090;BME280;3073;42.660;23.316;2023-11-21T04:32:10;94258.16;;;17.60;43.02
6090;BME280;3073;42.660;23.316;2023-11-21T04:34:38;94269.53;;;16.94;43.76
6090;BME280;3073;42.660;23.316;2023-11-21T04:37:04;94266.75;;;17.23;43.58
6090;BME280;3073;42.660;23.316;2023-11-21T04:39:32;94260.25;;;17.26;43.67
6090;BME280;3073;42.660;23.316;2023-11-21T04:42:00;94255.88;;;17.86;42.44
6090;BME280;3073;42.660;23.316;2023-11-21T04:44:26;94262.56;;;17.73;42.43
6090;BME280;3073;42.660;23.316;2023-11-21T04:46:53;94262.19;;;17.66;42.62
6090;BME280;3073;42.660;23.316;2023-11-21T04:49:21;94274.75;;;16.89;43.51
6090;BME280;3073;42.660;23.316;2023-11-21T04:51:47;94268.25;;;15.65;46.65
6090;BME280;3073;42.660;23.316;2023-11-21T04:54:14;94269.13;;;16.45;44.94
6090;BME280;3073;42.660;23.316;2023-11-21T04:56:41;94266.38;;;14.79;47.87
6090;BME280;3073;42.660;23.316;2023-11-21T04:59:10;94269.44;;;15.77;46.54
6090;BME280;3073;42.660;23.316;2023-11-21T05:01:36;94264.59;;;16.61;44.79
6090;BME280;3073;42.660;23.316;2023-11-21T05:04:04;94271.13;;;15.87;46.06
6090;BME280;3073;42.660;23.316;2023-11-21T05:06:31;94283.09;;;16.81;44.55
6090;BME280;3073;42.660;23.316;2023-11-21T05:08:58;94278.44;;;17.34;43.56
6090;BME280;3073;42.660;23.316;2023-11-21T05:11:25;94281.56;;;16.99;43.81
6090;BME280;3073;42.660;23.316;2023-11-21T05:13:52;94257.97;;;16.73;44.54
6090;BME280;3073;42.660;23.316;2023-11-21T05:16:25;94258.19;;;15.68;46.31
6090;BME280;3073;42.660;23.316;2023-11-21T05:18:53;94263.25;;;15.21;47.44
6090;BME280;3073;42.660;23.316;2023-11-21T05:21:25;94264.75;;;17.02;44.11
6090;BME280;3073;42.660;23.316;2023-11-21T05:23:52;94258.81;;;14.98;47.69
6090;BME280;3073;42.660;23.316;2023-11-21T05:26:19;94260.13;;;16.66;45.31
6090;BME280;3073;42.660;23.316;2023-11-21T05:28:46;94268.00;;;16.93;44.28
6090;BME280;3073;42.660;23.316;2023-11-21T05:31:13;94273.22;;;14.93;47.97
6090;BME280;3073;42.660;23.316;2023-11-21T05:33:42;94275.19;;;16.78;44.95
6090;BME280;3073;42.660;23.316;2023-11-21T05:36:09;94279.06;;;16.94;44.48
6090;BME280;3073;42.660;23.316;2023-11-21T05:38:36;94282.06;;;17.01;44.19
6090;BME280;3073;42.660;23.316;2023-11-21T05:41:06;94283.00;;;17.24;44.03
6090;BME280;3073;42.660;23.316;2023-11-21T05:43:36;94282.44;;;16.52;44.78
6090;BME280;3073;42.660;23.316;2023-11-21T05:46:03;94278.34;;;16.88;44.56
6090;BME280;3073;42.660;23.316;2023-11-21T05:48:31;94286.91;;;15.46;46.65
6090;BME280;3073;42.660;23.316;2023-11-21T05:50:59;94278.66;;;15.78;46.76
6090;BME280;3073;42.660;23.316;2023-11-21T05:53:28;94269.03;;;16.55;45.44
6090;BME280;3073;42.660;23.316;2023-11-21T05:55:54;94277.59;;;16.69;44.98
6090;BME280;3073;42.660;23.316;2023-11-21T05:58:22;94276.44;;;17.13;44.70
6090;BME280;3073;42.660;23.316;2023-11-21T06:00:49;94274.59;;;17.32;44.08
6090;BME280;3073;42.660;23.316;2023-11-21T06:03:16;94280.56;;;17.46;44.04
6090;BME280;3073;42.660;23.316;2023-11-21T06:05:42;94276.81;;;17.57;43.78
6090;BME280;3073;42.660;23.316;2023-11-21T06:08:11;94272.34;;;17.44;44.05
6090;BME280;3073;42.660;23.316;2023-11-21T06:10:38;94275.94;;;17.62;43.91
6090;BME280;3073;42.660;23.316;2023-11-21T06:13:05;94274.84;;;17.49;43.75
6090;BME280;3073;42.660;23.316;2023-11-21T06:15:33;94273.75;;;17.69;43.48
6090;BME280;3073;42.660;23.316;2023-11-21T06:18:00;94290.75;;;17.56;43.64
6090;BME280;3073;42.660;23.316;2023-11-21T06:20:27;94294.50;;;17.77;43.42
6090;BME280;3073;42.660;23.316;2023-11-21T06:22:53;94292.69;;;17.64;43.41
6090;BME280;3073;42.660;23.316;2023-11-21T06:25:22;94282.34;;;17.91;43.08
6090;BME280;3073;42.660;23.316;2023-11-21T06:27:50;94303.22;;;16.79;44.35
6090;BME280;3073;42.660;23.316;2023-11-21T06:30:17;94294.28;;;17.41;43.50
6090;BME280;3073;42.660;23.316;2023-11-21T06:32:45;94303.78;;;17.14;43.85
6090;BME280;3073;42.660;23.316;2023-11-21T06:35:12;94292.50;;;17.74;43.83
6090;BME280;3073;42.660;23.316;2023-11-21T06:37:40;94305.53;;;18.10;42.68
6090;BME280;3073;42.660;23.316;2023-11-21T06:40:12;94305.16;;;18.17;42.77
6090;BME280;3073;42.660;23.316;2023-11-21T06:42:42;94308.13;;;18.51;42.21
6090;BME280;3073;42.660;23.316;2023-11-21T06:45:10;94313.59;;;18.85;42.01
6090;BME280;3073;42.660;23.316;2023-11-21T06:47:37;94315.13;;;19.09;41.70
6090;BME280;3073;42.660;23.316;2023-11-21T06:50:05;94313.22;;;19.81;41.29
6090;BME280;3073;42.660;23.316;2023-11-21T06:52:32;94314.41;;;20.62;39.50
6090;BME280;3073;42.660;23.316;2023-11-21T06:54:59;94314.84;;;19.77;39.45
6090;BME280;3073;42.660;23.316;2023-11-21T06:57:26;94312.13;;;19.51;40.09
6090;BME280;3073;42.660;23.316;2023-11-21T06:59:54;94318.25;;;17.10;43.78
6090;BME280;3073;42.660;23.316;2023-11-21T07:02:22;94311.25;;;18.07;44.87
6090;BME280;3073;42.660;23.316;2023-11-21T07:04:52;94310.19;;;18.35;42.49
6090;BME280;3073;42.660;23.316;2023-11-21T07:07:18;94315.84;;;18.65;42.09
6090;BME280;3073;42.660;23.316;2023-11-21T07:09:45;94306.03;;;19.33;40.51
6090;BME280;3073;42.660;23.316;2023-11-21T07:12:13;94304.50;;;19.32;40.87
6090;BME280;3073;42.660;23.316;2023-11-21T07:14:40;94301.22;;;19.63;40.38
6090;BME280;3073;42.660;23.316;2023-11-21T07:17:11;94298.38;;;19.28;40.56
6090;BME280;3073;42.660;23.316;2023-11-21T07:19:38;94298.97;;;20.00;39.43
6090;BME280;3073;42.660;23.316;2023-11-21T07:22:06;94298.56;;;19.76;40.86
6090;BME280;3073;42.660;23.316;2023-11-21T07:24:34;94309.66;;;19.46;39.62
6090;BME280;3073;42.660;23.316;2023-11-21T07:27:02;94307.78;;;19.69;39.67
6090;BME280;3073;42.660;23.316;2023-11-21T07:29:30;94313.75;;;20.39;39.65
6090;BME280;3073;42.660;23.316;2023-11-21T07:31:58;94309.97;;;20.54;38.86
6090;BME280;3073;42.660;23.316;2023-11-21T07:34:27;94303.16;;;20.84;38.83
6090;BME280;3073;42.660;23.316;2023-11-21T07:36:54;94305.31;;;21.25;37.81
6090;BME280;3073;42.660;23.316;2023-11-21T07:39:21;94305.75;;;20.92;38.03
6090;BME280;3073;42.660;23.316;2023-11-21T07:41:47;94303.19;;;21.27;37.87
6090;BME280;3073;42.660;23.316;2023-11-21T07:44:15;94314.06;;;21.75;37.44
6090;BME280;3073;42.660;23.316;2023-11-21T07:46:43;94307.75;;;21.13;37.81
6090;BME280;3073;42.660;23.316;2023-11-21T07:49:11;94306.91;;;20.43;38.57
6090;BME280;3073;42.660;23.316;2023-11-21T07:51:41;94295.34;;;20.75;38.80
6090;BME280;3073;42.660;23.316;2023-11-21T07:54:09;94303.78;;;21.24;38.33
6090;BME280;3073;42.660;23.316;2023-11-21T07:56:36;94296.53;;;22.19;38.04
6090;BME280;3073;42.660;23.316;2023-11-21T07:59:03;94296.72;;;22.72;36.42
6090;BME280;3073;42.660;23.316;2023-11-21T08:01:30;94287.41;;;22.63;36.12
6090;BME280;3073;42.660;23.316;2023-11-21T08:03:57;94280.47;;;22.17;36.45
6090;BME280;3073;42.660;23.316;2023-11-21T08:06:27;94280.41;;;22.34;36.73
6090;BME280;3073;42.660;23.316;2023-11-21T08:08:55;94282.53;;;22.61;35.57
6090;BME280;3073;42.660;23.316;2023-11-21T08:11:22;94287.66;;;22.20;36.87
6090;BME280;3073;42.660;23.316;2023-11-21T08:13:49;94290.00;;;22.63;35.91
6090;BME280;3073;42.660;23.316;2023-11-21T08:16:15;94282.25;;;20.97;38.14
6090;BME280;3073;42.660;23.316;2023-11-21T08:18:42;94289.09;;;20.68;38.36
6090;BME280;3073;42.660;23.316;2023-11-21T08:21:09;94291.75;;;21.11;38.84
6090;BME280;3073;42.660;23.316;2023-11-21T08:23:37;94281.69;;;19.87;40.10
6090;BME280;3073;42.660;23.316;2023-11-21T08:26:06;94278.78;;;21.11;38.32
6090;BME280;3073;42.660;23.316;2023-11-21T08:28:34;94278.41;;;20.69;39.05
6090;BME280;3073;42.660;23.316;2023-11-21T08:31:01;94281.63;;;21.43;38.84
6090;BME280;3073;42.660;23.316;2023-11-21T08:33:28;94283.09;;;19.93;40.87
6090;BME280;3073;42.660;23.316;2023-11-21T08:35:54;94282.09;;;22.30;36.89
6090;BME280;3073;42.660;23.316;2023-11-21T08:38:21;94276.88;;;22.88;36.55
6090;BME280;3073;42.660;23.316;2023-11-21T08:40:48;94270.75;;;22.64;36.95
6090;BME280;3073;42.660;23.316;2023-11-21T08:43:17;94282.56;;;20.87;38.25
6090;BME280;3073;42.660;23.316;2023-11-21T08:45:45;94279.03;;;19.70;40.26
6090;BME280;3073;42.660;23.316;2023-11-21T08:48:12;94280.09;;;21.51;38.41
6090;BME280;3073;42.660;23.316;2023-11-21T08:50:39;94277.97;;;21.99;37.67
6090;BME280;3073;42.660;23.316;2023-11-21T08:53:05;94269.19;;;22.42;37.45
6090;BME280;3073;42.660;23.316;2023-11-21T08:55:32;94272.72;;;22.67;36.74
6090;BME280;3073;42.660;23.316;2023-11-21T08:58:03;94268.28;;;20.25;39.58
6090;BME280;3073;42.660;23.316;2023-11-21T09:00:32;94259.34;;;20.82;38.97
6090;BME280;3073;42.660;23.316;2023-11-21T09:03:01;94239.81;;;21.91;37.80
6090;BME280;3073;42.660;23.316;2023-11-21T09:05:28;94246.16;;;22.02;37.01
6090;BME280;3073;42.660;23.316;2023-11-21T09:07:56;94241.00;;;21.85;37.65
6090;BME280;3073;42.660;23.316;2023-11-21T09:10:23;94229.31;;;22.38;37.46
6090;BME280;3073;42.660;23.316;2023-11-21T09:12:50;94215.16;;;21.97;37.36
6090;BME280;3073;42.660;23.316;2023-11-21T09:15:18;94209.00;;;21.00;39.02
6090;BME280;3073;42.660;23.316;2023-11-21T09:17:47;94217.16;;;21.54;37.47
6090;BME280;3073;42.660;23.316;2023-11-21T09:20:14;94221.03;;;21.05;38.41
6090;BME280;3073;42.660;23.316;2023-11-21T09:22:41;94209.41;;;21.37;38.26
6090;BME280;3073;42.660;23.316;2023-11-21T09:25:10;94203.06;;;21.00;38.89
6090;BME280;3073;42.660;23.316;2023-11-21T09:27:37;94192.03;;;22.54;37.25
6090;BME280;3073;42.660;23.316;2023-11-21T09:30:05;94191.88;;;22.92;37.07
6090;BME280;3073;42.660;23.316;2023-11-21T09:32:34;94182.19;;;23.26;35.67
6090;BME280;3073;42.660;23.316;2023-11-21T09:35:04;94166.00;;;22.75;35.59
6090;BME280;3073;42.660;23.316;2023-11-21T09:37:34;94166.44;;;23.79;35.34
6090;BME280;3073;42.660;23.316;2023-11-21T09:40:03;94161.72;;;23.36;35.10
6090;BME280;3073;42.660;23.316;2023-11-21T09:42:36;94159.16;;;25.64;33.72
6090;BME280;3073;42.660;23.316;2023-11-21T09:45:09;94156.94;;;25.97;32.40
6090;BME280;3073;42.660;23.316;2023-11-21T09:47:39;94152.75;;;24.86;33.76
6090;BME280;3073;42.660;23.316;2023-11-21T09:50:09;94135.63;;;25.79;32.26
6090;BME280;3073;42.660;23.316;2023-11-21T09:52:44;94125.13;;;26.49;32.79
6090;BME280;3073;42.660;23.316;2023-11-21T09:55:16;94131.38;;;27.70;30.89
6090;BME280;3073;42.660;23.316;2023-11-21T09:57:44;94128.19;;;28.36;29.25
6090;BME280;3073;42.660;23.316;2023-11-21T10:00:14;94121.22;;;27.20;30.06
6090;BME280;3073;42.660;23.316;2023-11-21T10:02:43;94116.75;;;27.69;29.38
6090;BME280;3073;42.660;23.316;2023-11-21T10:05:12;94117.25;;;28.64;29.32
6090;BME280;3073;42.660;23.316;2023-11-21T10:07:42;94116.03;;;29.72;27.73
6090;BME280;3073;42.660;23.316;2023-11-21T10:10:13;94119.44;;;29.25;28.28
6090;BME280;3073;42.660;23.316;2023-11-21T10:12:43;94106.03;;;30.75;27.04
6090;BME280;3073;42.660;23.316;2023-11-21T10:15:16;94106.47;;;30.98;26.77
6090;BME280;3073;42.660;23.316;2023-11-21T10:17:44;94106.91;;;31.63;25.57
6090;BME280;3073;42.660;23.316;2023-11-21T10:20:14;94100.75;;;30.71;26.21
6090;BME280;3073;42.660;23.316;2023-11-21T10:22:42;94091.75;;;30.93;25.86
6090;BME280;3073;42.660;23.316;2023-11-21T10:25:09;94081.94;;;30.83;25.73
6090;BME280;3073;42.660;23.316;2023-11-21T10:27:37;94087.19;;;30.69;26.25
6090;BME280;3073;42.660;23.316;2023-11-21T10:30:05;94083.56;;;30.08;26.09
6090;BME280;3073;42.660;23.316;2023-11-21T10:32:33;94093.81;;;29.19;27.80
6090;BME280;3073;42.660;23.316;2023-11-21T10:35:00;94086.94;;;29.51;27.31
6090;BME280;3073;42.660;23.316;2023-11-21T10:37:33;94076.19;;;28.16;28.57
6090;BME280;3073;42.660;23.316;2023-11-21T10:40:00;94078.81;;;28.79;27.96
6090;BME280;3073;42.660;23.316;2023-11-21T10:42:26;94074.56;;;28.67;28.04
6090;BME280;3073;42.660;23.316;2023-11-21T10:44:54;94069.66;;;27.76;28.84
6090;BME280;3073;42.660;23.316;2023-11-21T10:47:22;94068.53;;;27.25;29.66
6090;BME280;3073;42.660;23.316;2023-11-21T10:49:49;94065.53;;;26.81;29.78
6090;BME280;3073;42.660;23.316;2023-11-21T10:52:18;94067.25;;;25.96;31.29
6090;BME280;3073;42.660;23.316;2023-11-21T10:54:47;94054.56;;;25.60;32.14
6090;BME280;3073;42.660;23.316;2023-11-21T10:57:18;94054.50;;;25.76;31.28
6090;BME280;3073;42.660;23.316;2023-11-21T10:59:47;94046.69;;;24.66;32.99
6090;BME280;3073;42.660;23.316;2023-11-21T11:02:21;94054.31;;;24.87;32.91
6090;BME280;3073;42.660;23.316;2023-11-21T11:04:52;94053.72;;;25.56;32.40
6090;BME280;3073;42.660;23.316;2023-11-21T11:07:21;94048.41;;;25.52;31.77
6090;BME280;3073;42.660;23.316;2023-11-21T11:09:54;94044.81;;;25.95;31.87
6090;BME280;3073;42.660;23.316;2023-11-21T11:12:21;94044.19;;;25.48;32.21
6090;BME280;3073;42.660;23.316;2023-11-21T11:14:48;94042.41;;;24.58;32.51
6090;BME280;3073;42.660;23.316;2023-11-21T11:17:16;94032.28;;;23.49;34.04
6090;BME280;3073;42.660;23.316;2023-11-21T11:19:46;94026.94;;;24.96;32.55
6090;BME280;3073;42.660;23.316;2023-11-21T11:22:24;94021.09;;;24.56;32.85
6090;BME280;3073;42.660;23.316;2023-11-21T11:25:15;93999.41;;;24.68;33.29
6090;BME280;3073;42.660;23.316;2023-11-21T11:27:54;94003.22;;;25.01;32.68
6090;BME280;3073;42.660;23.316;2023-11-21T11:30:32;94000.09;;;24.96;32.63
6090;BME280;3073;42.660;23.316;2023-11-21T11:33:08;93999.00;;;24.81;33.37
6090;BME280;3073;42.660;23.316;2023-11-21T11:35:44;94004.19;;;25.13;32.95
6090;BME280;3073;42.660;23.316;2023-11-21T11:38:13;94004.41;;;24.88;32.68
6090;BME280;3073;42.660;23.316;2023-11-21T11:40:46;94001.75;;;24.57;33.18
6090;BME280;3073;42.660;23.316;2023-11-21T11:43:13;93999.41;;;25.15;33.04
6090;BME280;3073;42.660;23.316;2023-11-21T11:45:51;93993.53;;;24.86;33.64
6090;BME280;3073;42.660;23.316;2023-11-21T11:48:21;94014.47;;;22.66;36.31
6090;BME280;3073;42.660;23.316;2023-11-21T11:51:02;94015.81;;;21.36;37.77
6090;BME280;3073;42.660;23.316;2023-11-21T11:53:33;94012.91;;;22.20;37.64
6090;BME280;3073;42.660;23.316;2023-11-21T11:56:26;94011.56;;;22.92;36.77
6090;BME280;3073;42.660;23.316;2023-11-21T11:58:54;94011.09;;;22.33;38.16
6090;BME280;3073;42.660;23.316;2023-11-21T12:01:22;93996.47;;;22.85;37.91
6090;BME280;3073;42.660;23.316;2023-11-21T12:04:23;93994.22;;;23.08;37.88
6090;BME280;3073;42.660;23.316;2023-11-21T12:06:56;94010.81;;;23.16;37.71
6090;BME280;3073;42.660;23.316;2023-11-21T12:09:26;94011.75;;;21.88;40.13
6090;BME280;3073;42.660;23.316;2023-11-21T12:11:55;94010.59;;;22.06;41.31
6090;BME280;3073;42.660;23.316;2023-11-21T12:14:22;94016.41;;;22.24;41.17
6090;BME280;3073;42.660;23.316;2023-11-21T12:16:50;94012.28;;;21.82;42.08
6090;BME280;3073;42.660;23.316;2023-11-21T12:19:17;94015.22;;;22.01;42.97
6090;BME280;3073;42.660;23.316;2023-11-21T12:21:46;94018.16;;;21.49;43.92
6090;BME280;3073;42.660;23.316;2023-11-21T12:24:14;94006.63;;;21.38;44.46
6090;BME280;3073;42.660;23.316;2023-11-21T12:26:42;94001.28;;;21.64;43.97
6090;BME280;3073;42.660;23.316;2023-11-21T12:29:10;93996.59;;;21.78;43.87
6090;BME280;3073;42.660;23.316;2023-11-21T12:31:37;94007.50;;;20.75;46.32
6090;BME280;3073;42.660;23.316;2023-11-21T12:34:05;94010.13;;;21.42;44.96
6090;BME280;3073;42.660;23.316;2023-11-21T12:36:34;94002.97;;;21.60;44.15
6090;BME280;3073;42.660;23.316;2023-11-21T12:39:02;94009.50;;;21.87;43.39
6090;BME280;3073;42.660;23.316;2023-11-21T12:41:29;94002.97;;;21.60;44.20
6090;BME280;3073;42.660;23.316;2023-11-21T12:43:57;94001.25;;;21.43;44.26
6090;BME280;3073;42.660;23.316;2023-11-21T12:46:25;93999.69;;;20.46;45.50
6090;BME280;3073;42.660;23.316;2023-11-21T12:48:56;93993.41;;;21.31;44.84
6090;BME280;3073;42.660;23.316;2023-11-21T12:51:23;93987.31;;;21.27;44.75
6090;BME280;3073;42.660;23.316;2023-11-21T12:53:51;93972.00;;;21.55;44.33
6090;BME280;3073;42.660;23.316;2023-11-21T12:56:18;93977.69;;;21.69;43.35
6090;BME280;3073;42.660;23.316;2023-11-21T12:58:48;93973.47;;;21.65;43.32
6090;BME280;3073;42.660;23.316;2023-11-21T13:01:16;93969.19;;;20.43;44.19
6090;BME280;3073;42.660;23.316;2023-11-21T13:03:47;93968.44;;;21.39;42.73
6090;BME280;3073;42.660;23.316;2023-11-21T13:06:17;93971.56;;;21.32;42.63
6090;BME280;3073;42.660;23.316;2023-11-21T13:08:45;93962.13;;;21.69;42.62
6090;BME280;3073;42.660;23.316;2023-11-21T13:11:12;93968.88;;;21.82;42.32
6090;BME280;3073;42.660;23.316;2023-11-21T13:13:41;93967.00;;;21.71;42.52
6090;BME280;3073;42.660;23.316;2023-11-21T13:16:10;93959.22;;;21.50;42.98